Syracuse Hancock International Airport Syracuse US
ICAO: KSYR
IATA: SYR
Category: Large
Scheduled Services: Yes

Elevation: 421 ft
TransAlt. 18000 ft.

Airport Communications:
APP/DEP:126.125
ATIS:132.05
CLNC DEL:125.05
GND:121.7
ANG OPS:139.625
TWR:120.3
UNICOM:122.95

KSYR Zoom In..

Runways:

(A) RW 10 length 9003 ft width 150 ft
ILS 109.90 / hdg 100

(B) RW 15 length 7500 ft width 150 ft
---- / hdg 147

(C) RW 28 length 9003 ft width 150 ft
ILS 109.90 / hdg 280

(D) RW 33 length 7500 ft width 150 ft
---- / hdg 327

Location; KSYR
Day. 16 / Time. 00.54 Zulu
* Altimeter: 30.12
* Temperature: 25° c. 77°f.
* Wind from: 060° Speed 04 kn.
Dewpoint: 15° c.
Visibility: 10 Statute Miles.
Clouds: Few 5000 ft.
Clouds: Scattered 16000 ft.
Clouds: Broken 22000 ft.

KSYR 160054Z 06004KT 10SM FEW050 SCT160 BKN220 25/15 A3012 RMK AO2 SLP192 T02500150

Going to: --> -->


Wind From 060°
Speed 04 kn.

 
 
jpsmedia worldairports.se 2020   terms of use